createdAt,value
2023-03-19T00:02:23.799Z,31.67
2023-03-19T00:04:51.565Z,32.07
2023-03-19T00:07:19.649Z,29.80
2023-03-19T00:09:48.359Z,28.80
2023-03-19T00:12:16.359Z,25.80
2023-03-19T00:14:44.317Z,26.33
2023-03-19T00:17:12.276Z,29.63
2023-03-19T00:19:41.470Z,25.52
2023-03-19T00:22:09.677Z,26.37
2023-03-19T00:24:37.553Z,24.03
2023-03-19T00:27:05.513Z,25.00
2023-03-19T00:29:33.378Z,26.27
2023-03-19T00:32:01.222Z,24.30
2023-03-19T00:34:29.094Z,22.30
2023-03-19T00:36:58.324Z,24.77
2023-03-19T00:39:26.107Z,22.47
2023-03-19T00:41:54.381Z,23.97
2023-03-19T00:44:22.065Z,24.10
2023-03-19T00:46:49.954Z,25.53
2023-03-19T00:49:17.698Z,23.87
2023-03-19T00:51:45.893Z,28.67
2023-03-19T00:54:15.254Z,26.83
2023-03-19T00:56:43.050Z,22.73
2023-03-19T00:59:10.784Z,24.83
2023-03-19T01:01:39.147Z,23.97
2023-03-19T01:04:07.115Z,20.90
2023-03-19T01:06:34.972Z,22.87
2023-03-19T01:09:02.674Z,23.43
2023-03-19T01:11:32.293Z,24.03
2023-03-19T01:14:02.562Z,21.90
2023-03-19T01:16:30.469Z,23.10
2023-03-19T01:18:58.482Z,25.87
2023-03-19T01:21:27.248Z,23.50
2023-03-19T01:23:55.023Z,21.20
2023-03-19T01:26:22.731Z,23.83
2023-03-19T01:28:52.431Z,20.40
2023-03-19T01:31:20.814Z,20.00
2023-03-19T01:33:48.694Z,20.57
2023-03-19T01:36:16.637Z,20.13
2023-03-19T01:38:44.353Z,21.07
2023-03-19T01:41:12.298Z,21.13
2023-03-19T01:43:40.119Z,20.80
2023-03-19T01:46:17.520Z,22.60
2023-03-19T01:48:49.817Z,21.57
2023-03-19T01:51:20.127Z,20.40
2023-03-19T01:53:52.609Z,19.53
2023-03-19T01:56:22.893Z,25.37
2023-03-19T01:58:57.125Z,23.60
2023-03-19T02:01:29.441Z,22.53
2023-03-19T02:03:57.398Z,21.37
2023-03-19T02:06:25.518Z,22.63
2023-03-19T02:08:54.818Z,21.90
2023-03-19T02:11:23.150Z,22.10
2023-03-19T02:13:50.861Z,18.27
2023-03-19T02:16:19.266Z,21.00
2023-03-19T02:18:48.910Z,20.33
2023-03-19T02:21:18.221Z,23.73
2023-03-19T02:23:51.103Z,19.07
2023-03-19T02:26:22.423Z,19.70
2023-03-19T02:28:52.364Z,17.60
2023-03-19T02:31:21.636Z,17.53
2023-03-19T02:33:58.968Z,15.53
2023-03-19T02:36:29.294Z,18.23
2023-03-19T02:39:01.441Z,18.87
2023-03-19T02:41:32.642Z,15.70
2023-03-19T02:44:03.043Z,16.27
2023-03-19T02:46:30.878Z,17.20
2023-03-19T02:48:58.989Z,15.97
2023-03-19T02:51:27.245Z,16.90
2023-03-19T02:53:54.912Z,17.93
2023-03-19T02:56:24.732Z,16.27
2023-03-19T02:58:53.819Z,17.67
2023-03-19T03:01:21.655Z,16.77
2023-03-19T03:03:49.504Z,18.50
2023-03-19T03:06:18.178Z,18.27
2023-03-19T03:08:46.117Z,19.47
2023-03-19T03:11:13.879Z,17.57
2023-03-19T03:13:41.621Z,15.43
2023-03-19T03:16:11.120Z,18.17
2023-03-19T03:18:38.959Z,17.70
2023-03-19T03:21:07.070Z,17.07
2023-03-19T03:23:34.879Z,16.77
2023-03-19T03:26:02.664Z,16.17
2023-03-19T03:28:30.431Z,18.90
2023-03-19T03:31:00.063Z,18.10
2023-03-19T03:33:29.271Z,18.17
2023-03-19T03:35:57.219Z,16.90
2023-03-19T03:38:25.235Z,16.80
2023-03-19T03:40:53.687Z,17.80
2023-03-19T03:43:22.345Z,16.13
2023-03-19T03:45:50.398Z,17.80
2023-03-19T03:48:18.915Z,18.90
2023-03-19T03:50:48.157Z,17.90
2023-03-19T03:53:15.963Z,20.27
2023-03-19T03:55:43.745Z,18.83
2023-03-19T03:58:13.259Z,17.63
2023-03-19T04:00:41.203Z,18.10
2023-03-19T04:03:09.019Z,14.10
2023-03-19T04:05:37.843Z,17.87
2023-03-19T04:08:07.770Z,15.03
2023-03-19T04:10:36.756Z,16.63
2023-03-19T04:13:04.638Z,17.43
2023-03-19T04:15:32.365Z,18.07
2023-03-19T04:18:00.266Z,20.13
2023-03-19T04:20:28.220Z,19.92
2023-03-19T04:22:56.116Z,19.93
2023-03-19T04:25:25.180Z,17.70
2023-03-19T04:27:53.389Z,20.53
2023-03-19T04:30:21.443Z,22.27
2023-03-19T04:32:49.284Z,18.60
2023-03-19T04:35:18.171Z,20.10
2023-03-19T04:37:48.529Z,16.97
2023-03-19T04:40:17.006Z,16.97
2023-03-19T04:42:46.243Z,18.70
2023-03-19T04:45:14.334Z,16.80
2023-03-19T04:47:42.567Z,16.97
2023-03-19T04:50:11.548Z,23.40
2023-03-19T04:52:39.600Z,21.53
2023-03-19T04:55:08.976Z,18.30
2023-03-19T04:57:36.830Z,24.10
2023-03-19T05:00:07.300Z,21.00
2023-03-19T05:02:35.180Z,18.63
2023-03-19T05:05:02.907Z,18.40
2023-03-19T05:07:30.946Z,20.67
2023-03-19T05:09:58.655Z,20.87
2023-03-19T05:12:27.096Z,20.73
2023-03-19T05:14:54.903Z,21.83
2023-03-19T05:17:24.008Z,26.10
2023-03-19T05:19:53.633Z,22.30
2023-03-19T05:22:22.320Z,19.33
2023-03-19T05:24:50.003Z,19.57
2023-03-19T05:27:17.920Z,21.00
2023-03-19T05:29:46.833Z,19.97
2023-03-19T05:32:15.902Z,21.13
2023-03-19T05:34:44.953Z,18.90
2023-03-19T05:37:13.024Z,21.20
2023-03-19T05:39:40.756Z,18.97
2023-03-19T05:42:08.690Z,17.90
2023-03-19T05:44:36.784Z,19.07
2023-03-19T05:47:04.952Z,21.77
2023-03-19T05:49:32.715Z,20.00
2023-03-19T05:52:01.793Z,18.97
2023-03-19T05:54:29.487Z,22.07
2023-03-19T05:56:57.233Z,24.40
2023-03-19T05:59:25.001Z,21.77
2023-03-19T06:01:52.979Z,21.80
2023-03-19T06:04:21.053Z,24.50
2023-03-19T06:06:48.882Z,23.13
2023-03-19T06:09:18.238Z,21.47
2023-03-19T06:11:46.277Z,19.83
2023-03-19T06:14:14.019Z,22.67
2023-03-19T06:16:41.761Z,20.77
2023-03-19T06:19:09.466Z,18.43
2023-03-19T06:21:37.213Z,17.30
2023-03-19T06:24:05.383Z,19.10
2023-03-19T06:26:34.879Z,23.37
2023-03-19T06:29:02.594Z,24.07
2023-03-19T06:31:30.450Z,21.77
2023-03-19T06:33:58.219Z,20.83
2023-03-19T06:36:26.214Z,19.90
2023-03-19T06:38:54.033Z,21.80
2023-03-19T06:41:21.929Z,22.73
2023-03-19T06:43:51.095Z,19.33
2023-03-19T06:46:18.958Z,19.63
2023-03-19T06:48:47.006Z,19.38
2023-03-19T06:51:14.798Z,20.85
2023-03-19T06:53:42.687Z,19.70
2023-03-19T06:56:10.860Z,23.33
2023-03-19T06:58:38.760Z,19.40
2023-03-19T07:01:09.043Z,19.60
2023-03-19T07:03:36.894Z,18.98
2023-03-19T07:06:04.870Z,20.90
2023-03-19T07:08:32.579Z,17.77
2023-03-19T07:11:05.160Z,19.98
2023-03-19T07:13:33.135Z,17.17
2023-03-19T07:16:01.572Z,17.85
2023-03-19T07:18:30.984Z,17.67
2023-03-19T07:20:58.859Z,19.05
2023-03-19T07:23:26.586Z,16.92
2023-03-19T07:25:54.373Z,14.55
2023-03-19T07:28:22.129Z,12.95
2023-03-19T07:30:52.030Z,15.45
2023-03-19T07:33:20.084Z,13.82
2023-03-19T07:35:49.477Z,13.38
2023-03-19T07:38:17.292Z,15.60
2023-03-19T07:40:54.731Z,13.52
2023-03-19T07:43:27.200Z,12.10
2023-03-19T07:45:55.522Z,13.15
2023-03-19T07:48:23.310Z,12.18
2023-03-19T07:50:53.031Z,11.82
2023-03-19T07:53:21.385Z,11.95
2023-03-19T07:55:49.406Z,10.80
2023-03-19T07:58:18.217Z,11.60
2023-03-19T08:00:46.479Z,10.32
2023-03-19T08:03:14.716Z,11.30
2023-03-19T08:05:42.430Z,20.27
2023-03-19T08:08:11.653Z,14.70
2023-03-19T08:10:39.739Z,17.35
2023-03-19T08:13:07.906Z,15.45
2023-03-19T08:15:35.898Z,11.48
2023-03-19T08:18:05.614Z,12.50
2023-03-19T08:20:34.176Z,13.98
2023-03-19T08:23:02.445Z,14.57
2023-03-19T08:25:32.633Z,16.95
2023-03-19T08:28:01.095Z,17.60
2023-03-19T08:30:29.000Z,19.13
2023-03-19T08:32:56.951Z,18.65
2023-03-19T08:35:26.958Z,16.93
2023-03-19T08:37:55.026Z,18.52
2023-03-19T08:40:22.982Z,16.83
2023-03-19T08:42:52.463Z,17.20
2023-03-19T08:45:20.947Z,14.75
2023-03-19T08:47:49.805Z,18.08
2023-03-19T08:50:18.838Z,16.10
2023-03-19T08:52:46.914Z,15.73
2023-03-19T08:55:14.873Z,16.17
2023-03-19T08:57:42.854Z,15.90
2023-03-19T09:00:13.596Z,15.05
2023-03-19T09:02:41.542Z,15.05
2023-03-19T09:05:10.086Z,15.55
2023-03-19T09:07:37.991Z,16.00
2023-03-19T09:10:06.751Z,18.88
2023-03-19T09:12:34.666Z,19.10
2023-03-19T09:15:03.561Z,18.40
2023-03-19T09:17:32.764Z,18.85
2023-03-19T09:20:00.772Z,20.25
2023-03-19T09:22:28.563Z,17.75
2023-03-19T09:24:56.281Z,19.75
2023-03-19T09:27:24.052Z,16.35
2023-03-19T09:29:51.807Z,16.27
2023-03-19T09:32:19.542Z,13.23
2023-03-19T09:34:48.849Z,14.63
2023-03-19T09:37:16.720Z,13.88
2023-03-19T09:39:44.588Z,15.60
2023-03-19T09:42:31.564Z,17.52
2023-03-19T09:44:59.550Z,16.25
2023-03-19T09:47:30.686Z,18.70
2023-03-19T09:50:02.495Z,18.50
2023-03-19T09:52:41.258Z,19.13
2023-03-19T09:55:17.214Z,18.95
2023-03-19T09:57:45.322Z,17.65
2023-03-19T10:00:23.453Z,16.90
2023-03-19T10:02:58.021Z,17.27
2023-03-19T10:05:37.381Z,16.13
2023-03-19T10:08:39.735Z,19.95
2023-03-19T10:11:25.837Z,18.85
2023-03-19T10:14:03.062Z,16.05
2023-03-19T10:16:31.897Z,16.20
2023-03-19T10:19:03.829Z,17.98
2023-03-19T10:21:36.590Z,16.65
2023-03-19T10:24:09.101Z,16.20
2023-03-19T10:26:37.082Z,15.52
2023-03-19T10:29:08.229Z,12.85
2023-03-19T10:31:45.573Z,14.90
2023-03-19T10:34:37.979Z,13.43
2023-03-19T10:37:14.894Z,13.85
2023-03-19T10:39:45.159Z,13.13
2023-03-19T10:42:27.309Z,18.65
2023-03-19T10:45:01.965Z,13.05
2023-03-19T10:47:29.742Z,12.38
2023-03-19T10:49:58.365Z,10.77
2023-03-19T10:52:30.699Z,10.95
2023-03-19T10:55:05.764Z,10.82
2023-03-19T10:57:34.361Z,11.63
2023-03-19T11:00:05.327Z,11.73
2023-03-19T11:02:33.549Z,10.10
2023-03-19T11:05:10.270Z,14.90
2023-03-19T11:07:39.973Z,13.05
2023-03-19T11:10:16.315Z,17.13
2023-03-19T11:12:49.813Z,16.65
2023-03-19T11:15:22.330Z,17.65
2023-03-19T11:17:57.255Z,13.65
2023-03-19T11:20:30.192Z,16.50
2023-03-19T11:23:02.776Z,15.30
2023-03-19T11:25:35.362Z,14.82
2023-03-19T11:28:07.362Z,11.60
2023-03-19T11:30:43.942Z,9.18
2023-03-19T11:33:44.131Z,9.82
2023-03-19T11:36:14.798Z,10.38
2023-03-19T11:39:04.687Z,11.70
2023-03-19T11:41:50.841Z,11.23
2023-03-19T11:44:27.624Z,12.65
2023-03-19T11:47:02.547Z,13.25
2023-03-19T11:49:41.258Z,14.95
2023-03-19T11:52:17.664Z,11.60
2023-03-19T11:54:59.403Z,11.27
2023-03-19T11:57:41.056Z,14.65
2023-03-19T12:00:26.680Z,14.63
2023-03-19T12:03:37.124Z,11.57
2023-03-19T12:06:15.670Z,10.50
2023-03-19T12:08:51.221Z,12.48
2023-03-19T12:11:25.759Z,10.32
2023-03-19T12:14:08.195Z,12.25
2023-03-19T12:16:48.397Z,10.38
2023-03-19T12:19:54.801Z,11.98
2023-03-19T12:22:34.643Z,11.52
2023-03-19T12:25:22.475Z,11.20
2023-03-19T12:27:56.751Z,11.93
2023-03-19T12:30:33.677Z,11.90
2023-03-19T12:33:11.748Z,13.82
2023-03-19T12:35:41.999Z,11.95
2023-03-19T12:38:14.388Z,12.73
2023-03-19T12:40:48.650Z,13.70
2023-03-19T12:43:26.638Z,12.65
2023-03-19T12:46:03.388Z,11.10
2023-03-19T12:48:36.959Z,13.30
2023-03-19T12:51:10.515Z,10.20
2023-03-19T12:53:48.620Z,11.10
2023-03-19T12:56:22.740Z,9.70
2023-03-19T12:58:59.493Z,8.52
2023-03-19T13:01:31.819Z,10.25
2023-03-19T13:04:07.257Z,9.48
2023-03-19T13:06:38.152Z,9.60
2023-03-19T13:09:13.108Z,10.60
2023-03-19T13:11:47.794Z,10.02
2023-03-19T13:14:22.711Z,11.45
2023-03-19T13:16:57.105Z,10.27
2023-03-19T13:19:32.698Z,10.25
2023-03-19T13:22:05.649Z,24.83
2023-03-19T13:24:36.821Z,24.15
2023-03-19T13:27:07.464Z,7.45
2023-03-19T13:29:39.002Z,8.55
2023-03-19T13:32:10.162Z,6.70
2023-03-19T13:34:39.684Z,7.00
2023-03-19T13:37:13.881Z,7.10
2023-03-19T13:39:42.626Z,8.98
2023-03-19T13:42:36.307Z,8.02
2023-03-19T13:45:26.477Z,7.55
2023-03-19T13:47:54.759Z,8.77
2023-03-19T13:50:29.186Z,8.05
2023-03-19T13:53:31.225Z,7.40
2023-03-19T13:56:00.190Z,6.95
2023-03-19T13:58:46.494Z,6.80
2023-03-19T14:01:38.005Z,8.48
2023-03-19T14:04:08.190Z,8.13
2023-03-19T14:06:39.878Z,5.82
2023-03-19T14:09:31.533Z,7.97
2023-03-19T14:12:11.779Z,9.90
2023-03-19T14:14:45.223Z,6.72
2023-03-19T14:17:18.130Z,9.93
2023-03-19T14:19:46.304Z,7.43
2023-03-19T14:22:21.487Z,7.65
2023-03-19T14:24:58.342Z,7.95
2023-03-19T14:27:30.771Z,5.40
2023-03-19T14:30:00.908Z,7.70
2023-03-19T14:32:36.210Z,8.48
2023-03-19T14:35:07.599Z,8.77
2023-03-19T14:37:47.845Z,8.77
2023-03-19T14:40:18.259Z,8.18
2023-03-19T14:42:58.980Z,8.98
2023-03-19T14:45:40.953Z,8.38
2023-03-19T14:48:52.827Z,8.13
2023-03-19T14:51:55.617Z,8.13
2023-03-19T14:54:34.041Z,8.80
2023-03-19T14:57:07.937Z,7.38
2023-03-19T14:59:40.113Z,7.25
2023-03-19T15:02:21.883Z,7.03
2023-03-19T15:04:51.331Z,10.23
2023-03-19T15:07:22.860Z,7.63
2023-03-19T15:09:55.755Z,8.38
2023-03-19T15:12:36.446Z,8.00
2023-03-19T15:15:24.598Z,6.35
2023-03-19T15:18:03.780Z,5.05
2023-03-19T15:20:37.937Z,7.68
2023-03-19T15:23:23.448Z,8.55
2023-03-19T15:25:56.991Z,8.45
2023-03-19T15:28:25.785Z,10.02
2023-03-19T15:31:05.797Z,9.30
2023-03-19T15:33:41.432Z,7.28
2023-03-19T15:36:17.359Z,8.90
2023-03-19T15:38:49.266Z,8.68
2023-03-19T15:41:18.850Z,6.80
2023-03-19T15:43:47.423Z,7.72
2023-03-19T15:46:19.105Z,9.50
2023-03-19T15:48:51.912Z,8.10
2023-03-19T15:51:23.791Z,7.60
2023-03-19T15:53:51.890Z,10.95
2023-03-19T15:56:20.981Z,6.35
2023-03-19T15:58:53.151Z,7.47
2023-03-19T16:01:22.430Z,9.52
2023-03-19T16:03:57.791Z,9.13
2023-03-19T16:06:29.762Z,11.18
2023-03-19T16:09:14.548Z,7.05
2023-03-19T16:11:44.849Z,7.95
2023-03-19T16:14:24.257Z,8.60
2023-03-19T16:16:52.931Z,7.72
2023-03-19T16:19:36.693Z,12.77
2023-03-19T16:22:14.303Z,8.10
2023-03-19T16:24:43.738Z,7.88
2023-03-19T16:27:14.957Z,8.18
2023-03-19T16:29:44.665Z,8.18
2023-03-19T16:32:22.046Z,7.18
2023-03-19T16:34:55.633Z,10.40
2023-03-19T16:37:33.509Z,8.60
2023-03-19T16:40:02.981Z,8.55
2023-03-19T16:42:38.962Z,8.90
2023-03-19T16:45:21.222Z,12.73
2023-03-19T16:47:51.006Z,8.45
2023-03-19T16:50:20.554Z,12.00
2023-03-19T16:52:50.670Z,12.30
2023-03-19T16:55:21.820Z,8.38
2023-03-19T16:57:57.046Z,8.55
2023-03-19T17:00:25.924Z,8.50
2023-03-19T17:02:55.754Z,7.78
2023-03-19T17:05:24.443Z,8.57
2023-03-19T17:07:55.467Z,8.30
2023-03-19T17:10:25.934Z,9.80
2023-03-19T17:12:55.635Z,9.55
2023-03-19T17:15:27.824Z,7.47
2023-03-19T17:17:55.819Z,7.93
2023-03-19T17:20:28.992Z,8.77
2023-03-19T17:22:58.137Z,9.02
2023-03-19T17:25:26.152Z,8.63
2023-03-19T17:27:54.060Z,8.50
2023-03-19T17:30:21.986Z,7.68
2023-03-19T17:32:51.665Z,8.35
2023-03-19T17:35:21.372Z,8.52
2023-03-19T17:37:49.584Z,8.18
2023-03-19T17:40:21.741Z,9.18
2023-03-19T17:42:50.534Z,10.93
2023-03-19T17:45:21.665Z,9.93
2023-03-19T17:47:53.586Z,10.82
2023-03-19T17:50:24.131Z,7.15
2023-03-19T17:52:53.107Z,9.85
2023-03-19T17:55:24.241Z,9.90
2023-03-19T17:57:52.438Z,10.63
2023-03-19T18:00:21.791Z,8.18
2023-03-19T18:02:51.659Z,8.15
2023-03-19T18:05:21.493Z,8.43
2023-03-19T18:07:50.569Z,8.70
2023-03-19T18:10:20.894Z,9.70
2023-03-19T18:12:50.522Z,8.52
2023-03-19T18:15:18.632Z,10.23
2023-03-19T18:17:49.926Z,10.80
2023-03-19T18:20:18.981Z,10.75
2023-03-19T18:22:47.213Z,11.18
2023-03-19T18:25:17.474Z,13.73
2023-03-19T18:27:45.395Z,11.07
2023-03-19T18:30:17.293Z,9.35
2023-03-19T18:32:47.428Z,11.02
2023-03-19T18:35:16.801Z,14.13
2023-03-19T18:37:47.294Z,15.00
2023-03-19T18:40:18.850Z,10.07
2023-03-19T18:42:46.849Z,11.18
2023-03-19T18:45:17.321Z,11.75
2023-03-19T18:47:46.136Z,16.02
2023-03-19T18:50:18.953Z,19.58
2023-03-19T18:52:47.353Z,29.65
2023-03-19T18:55:15.585Z,29.85
2023-03-19T18:57:53.279Z,35.10
2023-03-19T19:00:25.730Z,32.35
2023-03-19T19:02:55.103Z,31.35
2023-03-19T19:05:27.443Z,29.15
2023-03-19T19:07:56.497Z,36.97
2023-03-19T19:10:24.710Z,34.42
2023-03-19T19:12:55.101Z,37.38
2023-03-19T19:15:29.974Z,32.35
2023-03-19T19:17:58.762Z,26.75
2023-03-19T19:20:28.231Z,31.83
2023-03-19T19:22:56.486Z,32.90
2023-03-19T19:25:26.722Z,37.15
2023-03-19T19:28:00.825Z,39.33
2023-03-19T19:30:30.860Z,36.45
2023-03-19T19:32:58.579Z,32.13
2023-03-19T19:35:28.620Z,29.98
2023-03-19T19:37:56.414Z,29.05
2023-03-19T19:40:29.041Z,26.75
2023-03-19T19:42:56.743Z,26.65
2023-03-19T19:45:30.165Z,26.58
2023-03-19T19:48:00.222Z,29.48
2023-03-19T19:50:28.752Z,29.27
2023-03-19T19:52:57.964Z,28.58
2023-03-19T19:55:27.595Z,30.67
2023-03-19T19:57:57.699Z,27.95
2023-03-19T20:00:28.571Z,27.40
2023-03-19T20:02:57.507Z,29.15
2023-03-19T20:05:28.697Z,27.58
2023-03-19T20:07:58.222Z,26.52
2023-03-19T20:10:28.180Z,25.42
2023-03-19T20:12:57.793Z,19.83
2023-03-19T20:15:27.561Z,20.17
2023-03-19T20:17:56.047Z,20.10
2023-03-19T20:20:28.097Z,17.95
2023-03-19T20:22:57.792Z,19.33
2023-03-19T20:25:27.825Z,18.08
2023-03-19T20:27:58.276Z,19.88
2023-03-19T20:30:29.453Z,16.75
2023-03-19T20:32:57.960Z,17.27
2023-03-19T20:35:29.098Z,15.35
2023-03-19T20:37:58.382Z,15.90
2023-03-19T20:40:30.149Z,13.27
2023-03-19T20:42:58.139Z,14.70
2023-03-19T20:45:31.582Z,15.15
2023-03-19T20:47:59.585Z,14.18
2023-03-19T20:50:31.106Z,14.95
2023-03-19T20:53:01.340Z,13.45
2023-03-19T20:55:31.463Z,16.80
2023-03-19T20:57:59.611Z,13.95
2023-03-19T21:00:29.410Z,13.27
2023-03-19T21:02:58.175Z,10.50
2023-03-19T21:05:33.144Z,14.93
2023-03-19T21:08:01.169Z,11.65
2023-03-19T21:10:32.124Z,13.70
2023-03-19T21:13:01.120Z,11.77
2023-03-19T21:15:29.755Z,12.60
2023-03-19T21:17:58.407Z,10.45
2023-03-19T21:20:28.717Z,10.18
2023-03-19T21:23:02.465Z,12.23
2023-03-19T21:25:32.803Z,12.00
2023-03-19T21:28:04.064Z,12.27
2023-03-19T21:30:31.952Z,11.95
2023-03-19T21:32:59.722Z,9.57
2023-03-19T21:35:28.690Z,10.68
2023-03-19T21:37:57.762Z,11.02
2023-03-19T21:40:29.987Z,12.40
2023-03-19T21:43:02.094Z,15.00
2023-03-19T21:45:32.442Z,15.63
2023-03-19T21:48:17.473Z,15.23
2023-03-19T21:50:45.205Z,13.10
2023-03-19T21:53:14.330Z,13.85
2023-03-19T21:55:42.261Z,12.90
2023-03-19T21:58:13.144Z,14.10
2023-03-19T22:00:41.570Z,12.68
2023-03-19T22:03:17.372Z,11.02
2023-03-19T22:05:45.307Z,12.53
2023-03-19T22:08:16.178Z,12.23
2023-03-19T22:10:44.564Z,12.40
2023-03-19T22:13:19.459Z,11.65
2023-03-19T22:15:47.235Z,12.90
2023-03-19T22:18:15.910Z,14.70
2023-03-19T22:20:44.278Z,12.02
2023-03-19T22:23:12.617Z,13.18
2023-03-19T22:25:44.049Z,11.50
2023-03-19T22:28:17.992Z,12.50
2023-03-19T22:30:47.297Z,16.10
2023-03-19T22:33:17.232Z,13.45
2023-03-19T22:35:45.843Z,11.93
2023-03-19T22:38:13.868Z,12.48
2023-03-19T22:40:47.643Z,12.55
2023-03-19T22:43:21.508Z,12.55
2023-03-19T22:45:54.845Z,12.90
2023-03-19T22:48:22.964Z,12.27
2023-03-19T22:50:50.992Z,14.17
2023-03-19T22:53:23.500Z,12.68
2023-03-19T22:55:52.732Z,14.60
2023-03-19T22:58:20.896Z,10.18
2023-03-19T23:00:49.805Z,12.07
2023-03-19T23:03:21.340Z,16.27
2023-03-19T23:05:53.216Z,11.27
2023-03-19T23:08:21.995Z,11.57
2023-03-19T23:10:51.194Z,11.20
2023-03-19T23:13:23.004Z,11.52
2023-03-19T23:15:52.832Z,11.95
2023-03-19T23:18:27.355Z,9.68
2023-03-19T23:20:55.221Z,10.93
2023-03-19T23:23:23.029Z,10.27
2023-03-19T23:25:51.088Z,10.80
2023-03-19T23:28:23.657Z,9.83
2023-03-19T23:30:52.683Z,10.47
2023-03-19T23:33:21.930Z,10.53
2023-03-19T23:35:49.879Z,9.07
2023-03-19T23:38:18.394Z,9.20
2023-03-19T23:40:46.785Z,10.33
2023-03-19T23:43:20.294Z,8.50
2023-03-19T23:45:51.341Z,10.67
2023-03-19T23:48:21.750Z,10.70
2023-03-19T23:50:49.960Z,9.37
2023-03-19T23:53:20.344Z,9.07
2023-03-19T23:55:49.525Z,12.13
2023-03-19T23:58:18.850Z,8.97
